Time;durP1;ratioP1;P1;durP2;ratioP2;P2;SDS_P1;SDS_P2;PMS_P1;PMS_P2;Temp;Humidity;BMP_temperature;BMP_pressure;BME280_temperature;BME280_humidity;BME280_pressure;Samples;Min_cycle;Max_cycle;Signal;HPM_P1;HPM_P2
2023/01/13 00:01:18;;;;;;;20.55;8.45;;;;;;;3.37;100.00;98087.53;4998554;28;20091;-77
2023/01/13 00:03:44;;;;;;;20.08;9.18;;;;;;;3.32;100.00;98078.00;4998806;28;20052;-77
2023/01/13 00:06:15;;;;;;;21.30;9.23;;;;;;;3.40;100.00;98092.75;4998366;28;20473;-77
2023/01/13 00:08:41;;;;;;;18.02;9.18;;;;;;;3.29;100.00;98084.25;5015034;28;20112;-78
2023/01/13 00:11:07;;;;;;;16.73;8.05;;;;;;;3.36;100.00;98085.81;4998371;28;20108;-77
2023/01/13 00:13:34;;;;;;;19.05;6.53;;;;;;;3.35;100.00;98097.31;4998582;28;20084;-76
2023/01/13 00:16:07;;;;;;;12.73;6.57;;;;;;;3.31;100.00;98097.41;4998642;28;20057;-77
2023/01/13 00:18:35;;;;;;;11.30;5.85;;;;;;;3.26;100.00;98103.66;4998533;28;20036;-78
2023/01/13 00:21:05;;;;;;;10.20;5.68;;;;;;;3.23;100.00;98108.19;5014888;28;20029;-77
2023/01/13 00:23:32;;;;;;;9.98;5.65;;;;;;;3.28;100.00;98114.22;5014418;28;20460;-78
2023/01/13 00:25:58;;;;;;;9.20;4.78;;;;;;;3.26;100.00;98111.59;5014842;28;20103;-78
2023/01/13 00:28:24;;;;;;;6.88;3.90;;;;;;;3.21;100.00;98110.84;5014344;28;20057;-78
2023/01/13 00:30:50;;;;;;;8.93;4.07;;;;;;;3.27;100.00;98113.34;4998445;28;20468;-78
2023/01/13 00:33:17;;;;;;;5.47;3.15;;;;;;;3.29;100.00;98110.66;5014353;28;20018;-78
2023/01/13 00:35:42;;;;;;;8.10;3.63;;;;;;;3.35;100.00;98099.94;4998063;28;20026;-77
2023/01/13 00:38:08;;;;;;;5.45;3.00;;;;;;;3.28;100.00;98093.94;5014303;28;20028;-78
2023/01/13 00:40:33;;;;;;;4.97;3.15;;;;;;;3.39;100.00;98100.72;5014352;28;20017;-78
2023/01/13 00:45:43;;;;;;;5.03;2.92;;;;;;;3.41;100.00;98091.00;5017005;28;20036;-78
2023/01/13 00:48:09;;;;;;;8.52;3.60;;;;;;;3.26;100.00;98077.22;4997608;28;20409;-79
2023/01/13 00:50:34;;;;;;;9.70;3.45;;;;;;;3.19;100.00;98074.78;5014165;28;20081;-77
2023/01/13 00:53:00;;;;;;;8.05;4.80;;;;;;;3.27;100.00;98086.03;4997910;28;20029;-78
2023/01/13 00:55:26;;;;;;;7.78;4.13;;;;;;;3.31;100.00;98087.69;4997590;28;20029;-78
2023/01/13 00:57:52;;;;;;;8.98;4.38;;;;;;;3.35;100.00;98099.94;5010755;28;20069;-78
2023/01/13 01:00:18;;;;;;;10.05;5.10;;;;;;;3.38;100.00;98099.88;4995388;28;20068;-78
2023/01/13 01:02:44;;;;;;;14.63;5.90;;;;;;;3.39;100.00;98096.28;5010574;28;20476;-78
2023/01/13 01:05:09;;;;;;;12.40;5.80;;;;;;;3.40;100.00;98098.03;4997837;28;20091;-78
2023/01/13 01:07:35;;;;;;;16.52;6.53;;;;;;;3.45;100.00;98100.56;5013839;28;20029;-78
2023/01/13 01:10:01;;;;;;;9.98;5.55;;;;;;;3.34;100.00;98103.47;5010350;28;20493;-78
2023/01/13 01:12:26;;;;;;;17.63;7.10;;;;;;;3.34;100.00;98100.84;4996177;28;20034;-78
2023/01/13 01:14:52;;;;;;;13.68;5.88;;;;;;;3.34;100.00;98103.47;5014152;28;20112;-78
2023/01/13 01:17:17;;;;;;;12.63;6.80;;;;;;;3.40;100.00;98105.97;4997278;28;20554;-78
2023/01/13 01:19:43;;;;;;;15.30;7.68;;;;;;;3.42;100.00;98111.22;4997408;28;20025;-76
2023/01/13 01:22:09;;;;;;;17.38;7.68;;;;;;;3.40;100.00;98102.47;4997311;28;20032;-77
2023/01/13 01:24:34;;;;;;;16.83;8.85;;;;;;;3.51;100.00;98111.84;4997128;28;20033;-78
2023/01/13 01:27:00;;;;;;;21.80;9.70;;;;;;;3.60;100.00;98105.50;5013653;28;20035;-78
2023/01/13 01:29:25;;;;;;;18.88;8.98;;;;;;;3.50;100.00;98102.22;5013706;28;20029;-78
2023/01/13 01:31:51;;;;;;;15.30;8.32;;;;;;;3.55;100.00;98107.38;4997086;28;20025;-77
2023/01/13 01:34:16;;;;;;;16.80;7.78;;;;;;;3.53;100.00;98102.13;4997449;28;20084;-79
2023/01/13 01:36:42;;;;;;;15.27;7.65;;;;;;;3.53;100.00;98088.03;5013329;28;20095;-78
2023/01/13 01:39:09;;;;;;;15.20;6.72;;;;;;;3.59;100.00;98103.75;4993940;28;20049;-78
2023/01/13 01:41:35;;;;;;;11.95;6.28;;;;;;;3.62;100.00;98101.91;4996888;28;20413;-78
2023/01/13 01:44:28;;;;;;;13.85;6.03;;;;;;;3.61;100.00;98092.22;4997165;28;20532;-78
2023/01/13 01:46:53;;;;;;;;;;;;;;;3.67;100.00;98093.81;4994094;28;20049;-77
2023/01/13 01:49:25;;;;;;;14.10;5.90;;;;;;;3.57;100.00;98087.91;5013334;28;19924;-77
2023/01/13 01:51:50;;;;;;;17.52;6.45;;;;;;;3.54;100.00;98085.34;4996891;28;20599;-77
2023/01/13 01:54:23;;;;;;;17.90;7.45;;;;;;;3.56;100.00;98088.84;5010209;28;20097;-77
2023/01/13 01:56:49;;;;;;;15.52;6.90;;;;;;;3.61;100.00;98089.56;5012373;28;20045;-78
2023/01/13 01:59:15;;;;;;;12.32;6.32;;;;;;;3.57;100.00;98069.38;4996946;28;20026;-78
2023/01/13 02:01:42;;;;;;;14.82;7.22;;;;;;;3.58;100.00;98073.78;5013094;28;20026;-78
2023/01/13 02:04:16;;;;;;;16.15;7.55;;;;;;;3.61;100.00;98076.34;5013195;28;20572;-78
2023/01/13 02:06:43;;;;;;;14.10;7.28;;;;;;;3.55;100.00;98076.50;5012965;28;20112;-78
2023/01/13 02:09:09;;;;;;;14.07;7.32;;;;;;;3.54;100.00;98072.13;4996798;28;20053;-78
2023/01/13 02:14:24;;;;;;;16.23;7.30;;;;;;;3.50;100.00;98089.00;5015063;28;20032;-78
2023/01/13 02:16:58;;;;;;;16.00;7.72;;;;;;;3.45;100.00;98092.63;4996610;28;20033;-78
2023/01/13 02:20:01;;;;;;;13.45;7.13;;;;;;;3.46;100.00;98103.19;5013088;28;20041;-78
2023/01/13 02:22:51;;;;;;;17.20;7.50;;;;;;;3.49;100.00;98097.81;5012318;28;20028;-79
2023/01/13 02:25:36;;;;;;;13.77;7.53;;;;;;;3.46;100.00;98103.19;5028471;28;20109;-78
2023/01/13 02:28:10;;;;;;;15.57;7.22;;;;;;;3.39;100.00;98096.28;5034416;28;20017;-77
2023/01/13 02:33:53;;;;;;;14.63;7.03;;;;;;;3.21;100.00;98094.09;5017324;28;20036;-78
2023/01/13 02:36:37;;;;;;;14.60;7.80;;;;;;;3.36;100.00;98114.88;5013506;28;20037;-77
2023/01/13 02:39:17;;;;;;;11.48;6.50;;;;;;;3.37;100.00;98111.34;5016467;28;20025;-77
2023/01/13 02:45:02;;;;;;;13.23;6.53;;;;;;;3.32;100.00;98102.66;5019083;28;20499;-77
2023/01/13 02:47:33;;;;;;;11.88;6.05;;;;;;;3.34;100.00;98105.25;4996421;28;20033;-78
2023/01/13 02:50:01;;;;;;;13.20;6.47;;;;;;;3.32;100.00;98115.88;4997109;28;20060;-78
2023/01/13 02:52:32;;;;;;;13.70;6.80;;;;;;;3.31;100.00;98108.84;5016498;28;20130;-77
2023/01/13 02:55:03;;;;;;;15.27;6.90;;;;;;;3.37;100.00;98118.41;4999598;28;20021;-78
2023/01/13 02:57:31;;;;;;;14.05;7.10;;;;;;;3.43;100.00;98113.84;5016491;28;20029;-78
2023/01/13 02:59:56;;;;;;;11.55;6.45;;;;;;;3.42;100.00;98116.50;4999675;28;20493;-79
2023/01/13 03:02:23;;;;;;;17.67;7.90;;;;;;;3.45;100.00;98125.22;4999768;28;20088;-78
2023/01/13 03:04:57;;;;;;;15.55;7.10;;;;;;;3.25;100.00;98104.59;4999628;28;20037;-77
2023/01/13 03:08:00;;;;;;;16.20;7.47;;;;;;;3.33;100.00;98117.59;4996459;28;20448;-76
2023/01/13 03:10:47;;;;;;;16.73;7.07;;;;;;;3.36;100.00;98114.88;5011108;28;20028;-77
2023/01/13 03:13:37;;;;;;;16.45;7.18;;;;;;;3.36;100.00;98109.59;5013313;28;20065;-77
2023/01/13 03:16:06;;;;;;;16.83;8.10;;;;;;;3.41;100.00;98118.31;5012898;28;20394;-78
2023/01/13 03:18:46;;;;;;;20.55;8.35;;;;;;;3.38;100.00;98107.81;5016110;28;20069;-79
2023/01/13 03:21:20;;;;;;;17.55;7.40;;;;;;;3.40;100.00;98120.97;5033621;28;20408;-77
2023/01/13 03:24:19;;;;;;;19.02;8.75;;;;;;;3.41;100.00;98115.66;4999343;28;20049;-78
2023/01/13 03:27:01;;;;;;;17.42;9.00;;;;;;;3.41;100.00;98115.66;4996513;28;20030;-79
2023/01/13 03:29:36;;;;;;;20.50;9.60;;;;;;;3.39;100.00;98114.81;5012599;28;20029;-78
2023/01/13 03:32:13;;;;;;;20.35;8.80;;;;;;;3.39;100.00;98117.44;5015551;28;20036;-78
2023/01/13 03:34:49;;;;;;;20.55;8.73;;;;;;;3.35;100.00;98115.81;4999452;28;20396;-78
2023/01/13 03:37:18;;;;;;;22.75;10.60;;;;;;;3.35;100.00;98122.88;5031402;28;20029;-78
2023/01/13 03:39:49;;;;;;;24.08;11.25;;;;;;;3.34;100.00;98114.06;5012364;28;20397;-77
2023/01/13 03:42:22;;;;;;;22.30;10.60;;;;;;;3.37;100.00;98119.28;4997107;28;20098;-77
2023/01/13 03:45:02;;;;;;;22.83;10.25;;;;;;;3.42;100.00;98125.31;5015412;28;20413;-78
2023/01/13 03:47:34;;;;;;;21.25;10.48;;;;;;;3.36;100.00;98125.47;5014799;28;20044;-78
2023/01/13 03:50:05;;;;;;;25.17;9.93;;;;;;;3.41;100.00;98130.66;5013190;28;20049;-78
2023/01/13 03:52:33;;;;;;;21.50;11.18;;;;;;;3.49;100.00;98144.53;5006752;28;20025;-78
2023/01/13 03:55:02;;;;;;;26.33;10.85;;;;;;;3.48;100.00;98138.38;4998956;28;20072;-78
2023/01/13 03:57:30;;;;;;;23.48;11.00;;;;;;;3.47;100.00;98134.00;5001511;28;20030;-79
2023/01/13 04:00:22;;;;;;;22.02;10.43;;;;;;;3.53;100.00;98141.78;4998598;28;20032;-78
2023/01/13 04:02:56;;;;;;;20.33;8.07;;;;;;;3.48;100.00;98143.66;5015163;28;20503;-78
2023/01/13 04:05:21;;;;;;;26.73;10.32;;;;;;;3.45;100.00;98138.44;5005302;28;20034;-78
2023/01/13 04:08:08;;;;;;;25.48;12.23;;;;;;;3.49;100.00;98145.41;5011077;28;20032;-79
2023/01/13 04:10:46;;;;;;;29.25;12.55;;;;;;;3.36;100.00;98121.94;5008332;28;20033;-78
2023/01/13 04:13:14;;;;;;;27.25;12.13;;;;;;;3.37;100.00;98134.25;4987811;28;20037;-78
2023/01/13 04:15:42;;;;;;;30.23;13.55;;;;;;;3.34;100.00;98140.50;4979210;28;20018;-78
2023/01/13 04:18:11;;;;;;;31.17;13.00;;;;;;;3.46;100.00;98148.13;5006752;28;20025;-78
2023/01/13 04:20:38;;;;;;;29.88;14.15;;;;;;;3.38;100.00;98151.88;5014357;28;20022;-78
2023/01/13 04:23:04;;;;;;;28.83;12.10;;;;;;;3.36;100.00;98156.31;4996799;28;20382;-79
2023/01/13 04:25:30;;;;;;;19.40;8.98;;;;;;;3.26;100.00;98142.47;4986709;28;20036;-78
2023/01/13 04:27:55;;;;;;;21.13;10.95;;;;;;;3.29;100.00;98152.97;4992382;28;20029;-78
2023/01/13 04:30:21;;;;;;;24.02;11.80;;;;;;;3.27;100.00;98160.03;5010963;28;20042;-78
2023/01/13 04:32:46;;;;;;;22.30;10.73;;;;;;;3.32;100.00;98158.19;4990869;28;20118;-77
2023/01/13 04:35:12;;;;;;;30.38;13.25;;;;;;;3.28;100.00;98161.78;4987775;28;20078;-78
2023/01/13 04:37:37;;;;;;;26.30;12.00;;;;;;;3.28;100.00;98161.78;4991740;28;20041;-78
2023/01/13 04:40:04;;;;;;;27.73;11.65;;;;;;;3.24;100.00;98161.00;4989943;28;20603;-78
2023/01/13 04:42:29;;;;;;;26.55;12.25;;;;;;;3.28;100.00;98167.06;5008708;28;20033;-78
2023/01/13 04:44:55;;;;;;;19.98;9.05;;;;;;;3.24;100.00;98161.00;5013420;28;20499;-78
2023/01/13 04:47:27;;;;;;;22.65;9.68;;;;;;;3.24;100.00;98170.69;4995219;28;20061;-72
2023/01/13 04:49:52;;;;;;;21.20;8.75;;;;;;;3.30;100.00;98175.84;4987068;28;20058;-72
2023/01/13 04:52:18;;;;;;;20.35;8.52;;;;;;;3.41;100.00;98184.41;4997568;28;20034;-72
2023/01/13 04:54:43;;;;;;;22.27;8.70;;;;;;;3.32;100.00;98167.88;5032215;28;20021;-78
2023/01/13 04:57:09;;;;;;;21.63;8.77;;;;;;;3.38;100.00;98180.94;4998262;28;20508;-74
2023/01/13 04:59:34;;;;;;;18.98;8.98;;;;;;;3.40;100.00;98171.19;5014559;28;20033;-71
2023/01/13 05:02:00;;;;;;;19.88;9.63;;;;;;;3.42;100.00;98172.91;5013318;28;20547;-73
2023/01/13 05:04:25;;;;;;;23.70;9.55;;;;;;;3.51;100.00;98180.63;5014363;28;20037;-73
2023/01/13 05:06:51;;;;;;;19.08;8.45;;;;;;;3.54;100.00;98175.25;5031888;28;20040;-73
2023/01/13 05:09:16;;;;;;;21.83;10.77;;;;;;;3.57;100.00;98169.88;4997729;28;20511;-73
2023/01/13 05:17:17;;;;;;;23.70;10.65;;;;;;;3.45;100.00;98170.19;5016961;28;20040;-72
2023/01/13 05:19:42;;;;;;;24.65;11.05;;;;;;;3.53;100.00;98180.59;5010986;28;20045;-73
2023/01/13 05:27:36;;;;;;;27.92;11.13;;;;;;;3.52;100.00;98179.72;5023922;28;20086;-78
2023/01/13 05:30:01;;;;;;;22.58;10.45;;;;;;;3.53;100.00;98184.13;4999073;28;20049;-82
2023/01/13 05:32:27;;;;;;;22.20;10.10;;;;;;;3.55;100.00;98176.13;4997570;28;20029;-80
2023/01/13 05:34:54;;;;;;;24.90;11.93;;;;;;;3.66;100.00;98182.88;4994475;28;20052;-80
2023/01/13 05:37:24;;;;;;;28.35;13.20;;;;;;;3.68;100.00;98189.03;4994959;28;20092;-80
2023/01/13 05:45:21;;;;;;;55.72;24.25;;;;;;;3.56;100.00;98188.44;5016326;28;20106;-81
2023/01/13 05:47:47;;;;;;;37.97;18.45;;;;;;;3.50;100.00;98181.53;4997014;28;20108;-80
2023/01/13 05:50:13;;;;;;;38.25;16.95;;;;;;;3.56;100.00;98189.31;5013082;28;20183;-79
2023/01/13 05:52:38;;;;;;;31.77;14.98;;;;;;;3.60;100.00;98190.97;5013551;28;20021;-79
2023/01/13 05:55:04;;;;;;;35.92;15.90;;;;;;;3.64;100.00;98197.94;4992349;28;20025;-80
2023/01/13 05:57:30;;;;;;;43.70;18.25;;;;;;;3.69;100.00;98198.69;5015461;28;20025;-79
2023/01/13 05:59:55;;;;;;;40.67;17.20;;;;;;;3.58;100.00;98190.16;5003769;28;20033;-80
2023/01/13 06:02:21;;;;;;;38.42;17.48;;;;;;;3.65;100.00;98194.38;5019895;28;20021;-80
2023/01/13 06:04:47;;;;;;;30.65;15.02;;;;;;;3.67;100.00;98199.63;5003335;28;20104;-80
2023/01/13 06:07:12;;;;;;;27.20;13.18;;;;;;;3.57;100.00;98198.97;5003178;28;20790;-80
2023/01/13 06:09:38;;;;;;;38.40;16.23;;;;;;;3.66;100.00;98203.19;5003304;28;20401;-80
2023/01/13 06:12:04;;;;;;;36.83;16.02;;;;;;;3.65;100.00;98197.03;5003095;28;20017;-80
2023/01/13 06:14:38;;;;;;;39.00;16.02;;;;;;;3.68;100.00;98204.91;5019649;28;20022;-78
2023/01/13 06:17:09;;;;;;;39.20;17.38;;;;;;;3.59;100.00;98193.66;5021479;28;20548;-79
2023/01/13 06:19:34;;;;;;;40.72;17.83;;;;;;;3.50;100.00;98196.53;5001942;28;20034;-80
2023/01/13 06:22:08;;;;;;;37.28;15.70;;;;;;;3.28;100.00;98185.59;5003186;28;20121;-79
2023/01/13 06:24:33;;;;;;;38.08;18.15;;;;;;;3.27;100.00;98203.22;5002993;28;20408;-80
2023/01/13 06:26:59;;;;;;;44.47;19.73;;;;;;;3.35;100.00;98208.34;5016257;28;20033;-79
2023/01/13 06:29:24;;;;;;;36.38;16.42;;;;;;;3.38;100.00;98215.31;5001518;28;20072;-78
2023/01/13 06:31:50;;;;;;;55.92;22.83;;;;;;;3.45;100.00;98216.91;4999906;28;20033;-79
2023/01/13 06:34:16;;;;;;;97.63;37.30;;;;;;;3.44;100.00;98218.69;5002914;28;20109;-79
2023/01/13 06:36:47;;;;;;;118.00;45.67;;;;;;;3.42;100.00;98217.84;5002094;28;20029;-81
2023/01/13 06:39:15;;;;;;;86.75;36.35;;;;;;;3.49;100.00;98224.75;5003699;28;20037;-81
2023/01/13 06:44:24;;;;;;;48.17;19.83;;;;;;;3.64;100.00;98240.25;5021993;28;20036;-81
2023/01/13 06:46:50;;;;;;;70.18;22.90;;;;;;;3.60;100.00;98225.34;5003129;28;20022;-80
2023/01/13 06:49:16;;;;;;;72.70;27.05;;;;;;;3.65;100.00;98238.47;5002483;28;20049;-80
2023/01/13 06:51:42;;;;;;;110.68;39.63;;;;;;;3.52;100.00;98222.03;5019261;28;20465;-79
2023/01/13 06:54:07;;;;;;;83.93;32.17;;;;;;;3.57;100.00;98212.19;5002933;28;20026;-80
2023/01/13 06:56:33;;;;;;;81.13;33.58;;;;;;;3.58;100.00;98229.81;5003121;28;20616;-80
2023/01/13 06:58:58;;;;;;;68.25;29.00;;;;;;;3.56;100.00;98231.63;5003260;28;20388;-79
2023/01/13 07:01:24;;;;;;;61.10;24.70;;;;;;;3.66;100.00;98238.44;5002572;28;20025;-80
2023/01/13 07:03:50;;;;;;;57.88;23.20;;;;;;;3.71;100.00;98236.56;5002876;28;20496;-80
2023/01/13 07:06:16;;;;;;;55.60;23.58;;;;;;;3.73;100.00;98229.44;5003181;28;20036;-79
2023/01/13 07:08:41;;;;;;;59.40;25.63;;;;;;;3.76;100.00;98234.66;4998872;28;20041;-81
2023/01/13 07:11:07;;;;;;;90.05;37.20;;;;;;;3.62;100.00;98226.19;5016021;28;20035;-79
2023/01/13 07:16:20;;;;;;;60.45;25.75;;;;;;;3.70;100.00;98234.81;5018898;28;20045;-79
2023/01/13 07:18:46;;;;;;;74.50;25.65;;;;;;;3.78;100.00;98248.72;4999281;28;20408;-81
2023/01/13 07:21:12;;;;;;;59.13;23.33;;;;;;;3.84;100.00;98248.56;5016011;28;20021;-81
2023/01/13 07:23:40;;;;;;;53.83;22.73;;;;;;;3.75;100.00;98240.00;4999127;28;20030;-80
2023/01/13 07:26:07;;;;;;;42.30;17.92;;;;;;;3.66;100.00;98237.59;5001329;28;20033;-80
2023/01/13 07:28:33;;;;;;;49.78;20.65;;;;;;;3.70;100.00;98245.41;5015751;28;20465;-80
2023/01/13 07:30:59;;;;;;;57.88;23.25;;;;;;;3.69;100.00;98237.50;4992713;28;20029;-80
2023/01/13 07:33:25;;;;;;;60.13;24.15;;;;;;;3.73;100.00;98247.09;4999250;28;20027;-80
2023/01/13 07:35:58;;;;;;;55.42;22.40;;;;;;;3.66;100.00;98238.44;5015504;28;20021;-78
2023/01/13 07:38:25;;;;;;;54.40;21.58;;;;;;;3.81;100.00;98259.22;4999257;28;20037;-78
2023/01/13 07:40:50;;;;;;;62.50;26.20;;;;;;;3.71;100.00;98247.16;5015055;28;20068;-79
2023/01/13 07:43:30;;;;;;;61.95;25.40;;;;;;;3.82;100.00;98239.81;4999083;28;20077;-79
2023/01/13 07:46:04;;;;;;;67.70;26.48;;;;;;;3.98;100.00;98242.09;5031583;28;20128;-80
2023/01/13 07:48:32;;;;;;;63.47;25.48;;;;;;;3.94;100.00;98238.63;5015110;28;20473;-80
2023/01/13 07:51:02;;;;;;;65.95;25.80;;;;;;;3.97;100.00;98243.84;5015230;28;20045;-80
2023/01/13 07:53:27;;;;;;;69.72;27.42;;;;;;;4.00;100.00;98243.78;4998825;28;20104;-80
2023/01/13 07:55:57;;;;;;;72.10;26.75;;;;;;;3.84;100.00;98243.28;4998783;28;20120;-79
2023/01/13 07:58:24;;;;;;;79.40;27.10;;;;;;;4.02;100.00;98241.09;4998957;28;20423;-80
2023/01/13 08:00:50;;;;;;;58.88;21.88;;;;;;;4.07;100.00;98247.16;4998625;28;20041;-80
2023/01/13 08:03:16;;;;;;;63.90;22.80;;;;;;;4.04;100.00;98239.28;4998709;28;20402;-79
2023/01/13 08:05:41;;;;;;;87.10;33.83;;;;;;;4.17;100.00;98241.59;5001888;28;20040;-79
2023/01/13 08:08:07;;;;;;;67.40;24.83;;;;;;;4.12;100.00;98237.34;4998645;28;20021;-80
2023/01/13 08:10:33;;;;;;;74.32;26.00;;;;;;;4.34;100.00;98249.09;5014888;28;20048;-80
2023/01/13 08:13:16;;;;;;;77.28;28.35;;;;;;;4.45;100.00;98247.03;5014995;28;20057;-79
2023/01/13 08:15:43;;;;;;;79.38;29.10;;;;;;;4.63;100.00;98246.53;5017400;28;20087;-80
2023/01/13 08:18:09;;;;;;;71.57;27.65;;;;;;;4.72;100.00;98238.34;4998133;28;20080;-80
2023/01/13 08:20:35;;;;;;;80.63;30.42;;;;;;;4.78;100.00;98229.34;5013742;28;20460;-80
2023/01/13 08:23:00;;;;;;;72.95;28.50;;;;;;;4.80;100.00;98214.25;4997001;28;20033;-80
2023/01/13 08:25:27;;;;;;;69.25;26.83;;;;;;;4.91;100.00;98205.13;4998717;28;20030;-80
2023/01/13 08:27:53;;;;;;;65.88;24.98;;;;;;;4.93;100.00;98200.63;5014440;28;20037;-80
2023/01/13 08:30:19;;;;;;;68.50;26.95;;;;;;;5.02;100.00;98190.66;4998316;28;20459;-80
2023/01/13 08:32:48;;;;;;;62.67;24.85;;;;;;;5.04;100.00;98186.19;4998135;28;20124;-80
2023/01/13 08:35:15;;;;;;;66.20;25.65;;;;;;;5.05;100.00;98180.84;4984902;28;20473;-80
2023/01/13 08:37:42;;;;;;;62.85;23.52;;;;;;;5.25;100.00;98182.91;4998132;28;20485;-80
2023/01/13 08:40:09;;;;;;;54.30;20.88;;;;;;;5.16;100.00;98169.94;4998115;28;20033;-82
2023/01/13 08:42:34;;;;;;;57.20;20.65;;;;;;;5.07;100.00;98156.94;5014234;28;20477;-80
2023/01/13 08:45:00;;;;;;;54.90;22.48;;;;;;;5.22;100.00;98167.97;4997765;28;20041;-80
2023/01/13 08:47:27;;;;;;;80.70;27.58;;;;;;;5.15;100.00;98149.63;4997962;28;20037;-80
2023/01/13 08:49:53;;;;;;;59.08;25.77;;;;;;;5.20;100.00;98158.31;4997422;28;20425;-80
2023/01/13 08:52:19;;;;;;;63.85;24.60;;;;;;;5.24;100.00;98158.16;4994099;28;20026;-80
2023/01/13 08:54:44;;;;;;;57.25;23.73;;;;;;;5.12;100.00;98145.28;4998755;28;20464;-80
2023/01/13 08:57:10;;;;;;;72.88;27.20;;;;;;;5.19;100.00;98156.56;5014364;28;20175;-80
2023/01/13 08:59:36;;;;;;;64.70;27.10;;;;;;;5.03;100.00;98150.00;4997775;28;20079;-80
2023/01/13 09:02:03;;;;;;;63.08;26.65;;;;;;;4.91;100.00;98136.19;4997251;28;20032;-79
2023/01/13 09:04:30;;;;;;;68.15;28.98;;;;;;;4.84;100.00;98139.94;4997731;28;20456;-79
2023/01/13 09:06:55;;;;;;;71.95;28.95;;;;;;;4.97;100.00;98144.88;5013944;28;20037;-79
2023/01/13 09:09:22;;;;;;;68.25;28.92;;;;;;;5.10;100.00;98151.56;5013902;28;20025;-80
2023/01/13 09:14:35;;;;;;;83.32;34.55;;;;;;;5.26;100.00;98140.41;5016876;28;20120;-81
2023/01/13 09:17:01;;;;;;;76.82;30.63;;;;;;;5.35;100.00;98136.63;4997582;28;20025;-80
2023/01/13 09:19:27;;;;;;;73.97;32.83;;;;;;;5.50;100.00;98141.44;5007938;28;20503;-80
2023/01/13 09:21:54;;;;;;;94.03;38.95;;;;;;;5.55;100.00;98134.19;4997904;28;20025;-80
2023/01/13 09:24:20;;;;;;;90.43;36.05;;;;;;;5.58;100.00;98130.56;4997236;28;20064;-79
2023/01/13 09:26:45;;;;;;;86.10;37.58;;;;;;;5.57;100.00;98111.09;4997611;28;20123;-80
2023/01/13 09:29:11;;;;;;;91.82;37.70;;;;;;;5.54;100.00;98111.22;4996959;28;20029;-79
2023/01/13 09:31:37;;;;;;;87.05;36.08;;;;;;;5.60;100.00;98116.31;4996819;28;20028;-79
2023/01/13 09:36:48;;;;;;;76.63;29.98;;;;;;;5.54;100.00;98105.91;5016920;28;20044;-80
2023/01/13 09:39:13;;;;;;;64.18;26.80;;;;;;;5.63;100.00;98113.56;4996990;28;20029;-80
2023/01/13 09:44:56;;;;;;;51.72;22.85;;;;;;;5.61;100.00;98096.81;5003691;28;20055;-80
2023/01/13 09:47:26;;;;;;;38.88;17.25;;;;;;;5.85;100.00;98121.66;5005240;28;20112;-80
2023/01/13 09:49:53;;;;;;;47.92;20.77;;;;;;;5.89;100.00;98112.72;4997463;28;20390;-79
2023/01/13 09:52:22;;;;;;;42.97;19.20;;;;;;;5.89;100.00;98096.78;5014087;28;20021;-80
2023/01/13 09:54:56;;;;;;;37.88;18.02;;;;;;;5.81;100.00;98078.47;4997416;28;20033;-85
2023/01/13 09:57:24;;;;;;;32.45;14.55;;;;;;;5.92;100.00;98073.66;4997111;28;20021;-85
2023/01/13 09:59:49;;;;;;;25.15;12.05;;;;;;;5.80;100.00;98073.19;5013408;28;20026;-79
2023/01/13 10:02:28;;;;;;;25.08;12.25;;;;;;;5.79;100.00;98072.31;4996642;28;20033;-80
2023/01/13 10:05:11;;;;;;;27.73;13.90;;;;;;;5.90;100.00;98067.56;5030688;28;20523;-79
2023/01/13 10:07:41;;;;;;;25.58;13.95;;;;;;;6.06;100.00;98074.97;5031468;28;20057;-80
2023/01/13 10:10:14;;;;;;;25.17;11.82;;;;;;;6.22;100.00;98066.38;4996988;28;20493;-80
2023/01/13 10:15:25;;;;;;;21.23;10.50;;;;;;;6.53;100.00;98048.38;5016326;28;20508;-79
2023/01/13 10:18:06;;;;;;;54.58;23.25;;;;;;;6.71;100.00;98038.84;4997530;28;20057;-79
2023/01/13 10:20:47;;;;;;;25.25;11.45;;;;;;;6.76;100.00;98028.91;4996986;28;20064;-80
2023/01/13 10:23:36;;;;;;;22.40;10.60;;;;;;;6.81;100.00;98026.06;5030904;28;20060;-79
2023/01/13 10:26:31;;;;;;;21.00;10.85;;;;;;;6.81;100.00;98026.06;5013449;28;20037;-79
2023/01/13 10:28:56;;;;;;;19.15;9.10;;;;;;;6.66;100.00;98005.38;4992517;28;20032;-80
2023/01/13 10:31:23;;;;;;;19.73;9.00;;;;;;;6.61;100.00;98008.25;4996797;28;20073;-79
2023/01/13 10:34:00;;;;;;;18.25;9.02;;;;;;;6.60;100.00;98001.19;5013330;28;20017;-81
2023/01/13 10:36:26;;;;;;;17.13;8.65;;;;;;;6.76;100.00;98004.97;5013231;28;20128;-81
2023/01/13 10:38:51;;;;;;;17.38;8.30;;;;;;;6.88;100.00;97988.53;4996778;28;20029;-79
2023/01/13 10:41:23;;;;;;;13.32;7.20;;;;;;;6.79;100.00;97974.75;4996654;28;20045;-80
2023/01/13 10:43:51;;;;;;;13.88;7.22;;;;;;;6.66;100.00;97977.03;4999781;28;20036;-80
2023/01/13 10:46:18;;;;;;;12.70;6.68;;;;;;;6.39;100.00;97962.16;5018636;28;20065;-80
2023/01/13 10:48:51;;;;;;;15.02;7.78;;;;;;;6.20;100.00;97977.06;5000827;28;20033;-80
2023/01/13 10:51:29;;;;;;;12.77;6.95;;;;;;;6.55;100.00;97993.38;5016464;28;20573;-79
2023/01/13 10:53:58;;;;;;;12.68;6.90;;;;;;;6.60;100.00;97968.41;5016512;28;20036;-79
2023/01/13 10:56:27;;;;;;;17.42;8.98;;;;;;;6.67;100.00;97960.16;5016332;28;20496;-81
2023/01/13 10:59:10;;;;;;;19.52;10.65;;;;;;;6.75;100.00;97947.41;5000415;28;20037;-79
2023/01/13 11:01:36;;;;;;;68.03;32.05;;;;;;;6.94;100.00;97964.34;5011412;28;20452;-80
2023/01/13 11:04:23;;;;;;;16.70;8.82;;;;;;;7.12;100.00;97953.88;5000023;28;20056;-80
2023/01/13 11:06:49;;;;;;;13.35;7.97;;;;;;;6.83;100.00;97929.34;5000171;28;20052;-80
2023/01/13 11:09:18;;;;;;;13.23;7.15;;;;;;;6.60;100.00;97924.13;5016703;28;20064;-80
2023/01/13 11:11:46;;;;;;;13.40;7.60;;;;;;;6.44;100.00;97937.13;5000087;28;20153;-79
2023/01/13 11:14:35;;;;;;;14.43;7.47;;;;;;;6.45;100.00;97949.50;5016338;28;20025;-80
2023/01/13 11:17:30;;;;;;;11.82;5.93;;;;;;;6.28;100.00;97940.44;5016493;28;20033;-80
2023/01/13 11:20:11;;;;;;;16.40;8.95;;;;;;;6.38;100.00;97933.84;5010467;28;20032;-79
2023/01/13 11:22:40;;;;;;;21.60;11.48;;;;;;;6.62;100.00;97929.34;4999875;28;20025;-79
2023/01/13 11:25:10;;;;;;;19.23;10.15;;;;;;;6.71;100.00;97932.50;5015886;28;20037;-79
2023/01/13 11:27:54;;;;;;;12.15;7.15;;;;;;;6.75;100.00;97923.50;4999832;28;20037;-80
2023/01/13 11:30:57;;;;;;;11.60;6.75;;;;;;;6.88;100.00;97902.59;5000266;28;20460;-86
2023/01/13 11:33:39;;;;;;;10.30;5.60;;;;;;;6.89;100.00;97902.50;5016980;28;20183;-85
2023/01/13 11:36:21;;;;;;;16.50;9.25;;;;;;;6.91;100.00;97906.00;5001806;28;20124;-86
2023/01/13 11:38:57;;;;;;;26.10;15.30;;;;;;;6.87;100.00;97909.69;5001549;28;20033;-87
2023/01/13 11:41:45;;;;;;;33.33;14.80;;;;;;;6.89;100.00;97899.84;5001191;28;20116;-88
2023/01/13 11:44:21;;;;;;;15.23;8.57;;;;;;;6.99;100.00;97897.66;5018028;28;20049;-87
2023/01/13 11:46:49;;;;;;;14.18;7.15;;;;;;;7.09;100.00;97894.56;5017849;28;20026;-88
2023/01/13 11:49:25;;;;;;;15.20;7.20;;;;;;;7.02;100.00;97876.28;5001536;28;20123;-86
2023/01/13 11:52:05;;;;;;;17.10;8.18;;;;;;;6.89;100.00;97881.22;5001215;28;20033;-85
2023/01/13 11:55:00;;;;;;;16.70;7.90;;;;;;;6.72;100.00;97893.50;5000168;28;20029;-85
2023/01/13 11:57:38;;;;;;;18.98;8.13;;;;;;;6.80;100.00;97884.28;4999885;28;20142;-83
2023/01/13 12:00:18;;;;;;;19.17;9.88;;;;;;;6.79;100.00;97885.22;5044514;28;20025;-82
2023/01/13 12:03:05;;;;;;;66.30;35.85;;;;;;;6.76;100.00;97885.34;5017425;28;20032;-83
2023/01/13 12:05:40;;;;;;;20.38;10.52;;;;;;;6.79;100.00;97887.03;5016351;28;20040;-85
2023/01/13 12:08:27;;;;;;;17.98;9.48;;;;;;;6.79;100.00;97885.22;5015741;28;20444;-83
2023/01/13 12:11:11;;;;;;;20.65;9.88;;;;;;;6.84;100.00;97882.38;5015385;28;20025;-83
2023/01/13 12:13:43;;;;;;;21.20;10.57;;;;;;;6.76;100.00;97876.50;5012206;28;20040;-83
2023/01/13 12:16:17;;;;;;;22.93;11.33;;;;;;;6.75;100.00;97861.47;5012313;28;20030;-83
2023/01/13 12:19:14;;;;;;;19.83;10.63;;;;;;;6.73;100.00;97864.22;5005052;28;20025;-85
2023/01/13 12:21:59;;;;;;;21.42;10.50;;;;;;;6.65;100.00;97850.38;5016218;28;20522;-82